sensor_id;sensor_type;location;lat;lon;timestamp;P1;durP1;ratioP1;P2;durP2;ratioP2
4462;SDS011;2244;50.200;8.220;2023-06-10T00:01:44;18.07;;;10.63;;
4462;SDS011;2244;50.200;8.220;2023-06-10T00:04:14;18.87;;;10.83;;
4462;SDS011;2244;50.200;8.220;2023-06-10T00:06:43;17.80;;;10.50;;
4462;SDS011;2244;50.200;8.220;2023-06-10T00:09:11;20.27;;;11.80;;
4462;SDS011;2244;50.200;8.220;2023-06-10T00:11:40;19.73;;;10.97;;
4462;SDS011;2244;50.200;8.220;2023-06-10T00:14:08;16.93;;;10.20;;
4462;SDS011;2244;50.200;8.220;2023-06-10T00:16:35;18.73;;;10.20;;
4462;SDS011;2244;50.200;8.220;2023-06-10T00:19:03;16.90;;;10.87;;
4462;SDS011;2244;50.200;8.220;2023-06-10T00:21:32;17.60;;;11.70;;
4462;SDS011;2244;50.200;8.220;2023-06-10T00:24:08;16.20;;;10.07;;
4462;SDS011;2244;50.200;8.220;2023-06-10T00:26:39;19.17;;;10.90;;
4462;SDS011;2244;50.200;8.220;2023-06-10T00:29:07;18.60;;;9.93;;
4462;SDS011;2244;50.200;8.220;2023-06-10T00:31:35;18.07;;;10.13;;
4462;SDS011;2244;50.200;8.220;2023-06-10T00:34:03;18.87;;;10.80;;
4462;SDS011;2244;50.200;8.220;2023-06-10T00:36:30;17.40;;;10.70;;
4462;SDS011;2244;50.200;8.220;2023-06-10T00:38:58;18.13;;;10.20;;
4462;SDS011;2244;50.200;8.220;2023-06-10T00:41:25;16.83;;;10.80;;
4462;SDS011;2244;50.200;8.220;2023-06-10T00:43:52;18.90;;;9.73;;
4462;SDS011;2244;50.200;8.220;2023-06-10T00:46:20;19.87;;;10.90;;
4462;SDS011;2244;50.200;8.220;2023-06-10T00:48:48;16.73;;;10.00;;
4462;SDS011;2244;50.200;8.220;2023-06-10T00:51:16;17.03;;;10.30;;
4462;SDS011;2244;50.200;8.220;2023-06-10T00:53:44;18.30;;;10.70;;
4462;SDS011;2244;50.200;8.220;2023-06-10T00:56:12;17.53;;;10.30;;
4462;SDS011;2244;50.200;8.220;2023-06-10T00:58:40;20.67;;;10.40;;
4462;SDS011;2244;50.200;8.220;2023-06-10T01:01:08;16.90;;;10.17;;
4462;SDS011;2244;50.200;8.220;2023-06-10T01:03:38;17.27;;;9.83;;
4462;SDS011;2244;50.200;8.220;2023-06-10T01:06:09;17.00;;;9.43;;
4462;SDS011;2244;50.200;8.220;2023-06-10T01:11:25;17.67;;;10.37;;
4462;SDS011;2244;50.200;8.220;2023-06-10T01:13:44;17.37;;;9.90;;
4462;SDS011;2244;50.200;8.220;2023-06-10T01:16:12;18.40;;;10.93;;
4462;SDS011;2244;50.200;8.220;2023-06-10T01:18:40;17.70;;;9.50;;
4462;SDS011;2244;50.200;8.220;2023-06-10T01:21:12;18.33;;;10.10;;
4462;SDS011;2244;50.200;8.220;2023-06-10T01:23:38;15.63;;;8.70;;
4462;SDS011;2244;50.200;8.220;2023-06-10T01:26:07;16.03;;;9.00;;
4462;SDS011;2244;50.200;8.220;2023-06-10T01:28:43;15.37;;;9.17;;
4462;SDS011;2244;50.200;8.220;2023-06-10T01:31:18;18.60;;;9.60;;
4462;SDS011;2244;50.200;8.220;2023-06-10T01:33:39;16.17;;;8.67;;
4462;SDS011;2244;50.200;8.220;2023-06-10T01:36:07;17.87;;;9.13;;
4462;SDS011;2244;50.200;8.220;2023-06-10T01:38:44;18.37;;;10.00;;
4462;SDS011;2244;50.200;8.220;2023-06-10T01:41:07;19.10;;;10.77;;
4462;SDS011;2244;50.200;8.220;2023-06-10T01:43:37;16.93;;;9.60;;
4462;SDS011;2244;50.200;8.220;2023-06-10T01:46:04;20.40;;;9.33;;
4462;SDS011;2244;50.200;8.220;2023-06-10T01:48:32;18.03;;;9.87;;
4462;SDS011;2244;50.200;8.220;2023-06-10T01:51:00;19.13;;;9.20;;
4462;SDS011;2244;50.200;8.220;2023-06-10T01:53:27;16.00;;;9.10;;
4462;SDS011;2244;50.200;8.220;2023-06-10T01:55:55;16.83;;;9.10;;
4462;SDS011;2244;50.200;8.220;2023-06-10T01:58:22;22.50;;;9.47;;
4462;SDS011;2244;50.200;8.220;2023-06-10T02:00:50;18.40;;;9.80;;
4462;SDS011;2244;50.200;8.220;2023-06-10T02:03:17;16.47;;;9.47;;
4462;SDS011;2244;50.200;8.220;2023-06-10T02:05:45;19.47;;;9.67;;
4462;SDS011;2244;50.200;8.220;2023-06-10T02:08:12;18.53;;;9.60;;
4462;SDS011;2244;50.200;8.220;2023-06-10T02:10:40;16.00;;;9.23;;
4462;SDS011;2244;50.200;8.220;2023-06-10T02:13:07;17.60;;;10.00;;
4462;SDS011;2244;50.200;8.220;2023-06-10T02:15:35;16.80;;;9.40;;
4462;SDS011;2244;50.200;8.220;2023-06-10T02:18:02;14.83;;;8.93;;
4462;SDS011;2244;50.200;8.220;2023-06-10T02:20:30;17.73;;;10.00;;
4462;SDS011;2244;50.200;8.220;2023-06-10T02:22:58;16.57;;;8.30;;
4462;SDS011;2244;50.200;8.220;2023-06-10T02:25:26;16.63;;;9.50;;
4462;SDS011;2244;50.200;8.220;2023-06-10T02:27:53;17.10;;;9.30;;
4462;SDS011;2244;50.200;8.220;2023-06-10T02:30:21;18.50;;;9.80;;
4462;SDS011;2244;50.200;8.220;2023-06-10T02:32:48;22.37;;;10.10;;
4462;SDS011;2244;50.200;8.220;2023-06-10T02:35:17;17.10;;;9.57;;
4462;SDS011;2244;50.200;8.220;2023-06-10T02:37:44;15.93;;;9.33;;
4462;SDS011;2244;50.200;8.220;2023-06-10T02:40:12;17.30;;;9.50;;
4462;SDS011;2244;50.200;8.220;2023-06-10T02:42:39;22.23;;;9.60;;
4462;SDS011;2244;50.200;8.220;2023-06-10T02:45:07;16.57;;;9.87;;
4462;SDS011;2244;50.200;8.220;2023-06-10T02:47:37;17.80;;;10.00;;
4462;SDS011;2244;50.200;8.220;2023-06-10T02:50:04;16.60;;;9.10;;
4462;SDS011;2244;50.200;8.220;2023-06-10T02:52:31;16.43;;;8.83;;
4462;SDS011;2244;50.200;8.220;2023-06-10T02:54:59;17.90;;;9.80;;
4462;SDS011;2244;50.200;8.220;2023-06-10T02:57:26;17.63;;;8.90;;
4462;SDS011;2244;50.200;8.220;2023-06-10T02:59:54;16.33;;;8.37;;
4462;SDS011;2244;50.200;8.220;2023-06-10T03:02:22;16.50;;;9.13;;
4462;SDS011;2244;50.200;8.220;2023-06-10T03:04:51;15.50;;;8.97;;
4462;SDS011;2244;50.200;8.220;2023-06-10T03:07:19;19.43;;;9.00;;
4462;SDS011;2244;50.200;8.220;2023-06-10T03:09:47;16.10;;;8.67;;
4462;SDS011;2244;50.200;8.220;2023-06-10T03:12:14;17.90;;;9.17;;
4462;SDS011;2244;50.200;8.220;2023-06-10T03:14:42;16.20;;;9.10;;
4462;SDS011;2244;50.200;8.220;2023-06-10T03:17:09;17.30;;;9.40;;
4462;SDS011;2244;50.200;8.220;2023-06-10T03:19:37;19.90;;;9.70;;
4462;SDS011;2244;50.200;8.220;2023-06-10T03:22:08;15.47;;;8.73;;
4462;SDS011;2244;50.200;8.220;2023-06-10T03:24:36;18.37;;;9.60;;
4462;SDS011;2244;50.200;8.220;2023-06-10T03:27:08;17.27;;;9.40;;
4462;SDS011;2244;50.200;8.220;2023-06-10T03:29:36;19.83;;;10.20;;
4462;SDS011;2244;50.200;8.220;2023-06-10T03:32:03;16.00;;;9.83;;
4462;SDS011;2244;50.200;8.220;2023-06-10T03:34:31;20.83;;;10.10;;
4462;SDS011;2244;50.200;8.220;2023-06-10T03:37:00;17.47;;;10.23;;
4462;SDS011;2244;50.200;8.220;2023-06-10T03:39:28;19.00;;;11.60;;
4462;SDS011;2244;50.200;8.220;2023-06-10T03:41:58;18.27;;;10.03;;
4462;SDS011;2244;50.200;8.220;2023-06-10T03:44:26;17.90;;;10.53;;
4462;SDS011;2244;50.200;8.220;2023-06-10T03:46:54;17.40;;;10.70;;
4462;SDS011;2244;50.200;8.220;2023-06-10T03:49:22;15.93;;;9.70;;
4462;SDS011;2244;50.200;8.220;2023-06-10T03:51:52;18.50;;;10.60;;
4462;SDS011;2244;50.200;8.220;2023-06-10T03:54:19;20.20;;;10.80;;
4462;SDS011;2244;50.200;8.220;2023-06-10T03:56:46;15.70;;;10.40;;
4462;SDS011;2244;50.200;8.220;2023-06-10T03:59:14;16.50;;;9.07;;
4462;SDS011;2244;50.200;8.220;2023-06-10T04:01:42;15.40;;;8.63;;
4462;SDS011;2244;50.200;8.220;2023-06-10T04:04:11;16.90;;;10.37;;
4462;SDS011;2244;50.200;8.220;2023-06-10T04:06:39;17.27;;;11.30;;
4462;SDS011;2244;50.200;8.220;2023-06-10T04:09:07;18.17;;;10.77;;
4462;SDS011;2244;50.200;8.220;2023-06-10T04:11:36;21.47;;;10.53;;
4462;SDS011;2244;50.200;8.220;2023-06-10T04:14:03;18.30;;;10.50;;
4462;SDS011;2244;50.200;8.220;2023-06-10T04:16:31;18.20;;;9.30;;
4462;SDS011;2244;50.200;8.220;2023-06-10T04:18:59;20.40;;;9.83;;
4462;SDS011;2244;50.200;8.220;2023-06-10T04:21:27;18.00;;;9.47;;
4462;SDS011;2244;50.200;8.220;2023-06-10T04:23:54;14.20;;;8.90;;
4462;SDS011;2244;50.200;8.220;2023-06-10T04:26:22;17.03;;;10.27;;
4462;SDS011;2244;50.200;8.220;2023-06-10T04:28:49;15.90;;;10.20;;
4462;SDS011;2244;50.200;8.220;2023-06-10T04:31:17;18.10;;;10.10;;
4462;SDS011;2244;50.200;8.220;2023-06-10T04:33:44;15.70;;;10.20;;
4462;SDS011;2244;50.200;8.220;2023-06-10T04:36:12;20.00;;;9.80;;
4462;SDS011;2244;50.200;8.220;2023-06-10T04:38:41;14.87;;;8.90;;
4462;SDS011;2244;50.200;8.220;2023-06-10T04:41:08;16.33;;;8.80;;
4462;SDS011;2244;50.200;8.220;2023-06-10T04:43:36;16.00;;;8.40;;
4462;SDS011;2244;50.200;8.220;2023-06-10T04:46:04;15.93;;;8.10;;
4462;SDS011;2244;50.200;8.220;2023-06-10T04:48:33;15.20;;;7.90;;
4462;SDS011;2244;50.200;8.220;2023-06-10T04:51:01;12.90;;;7.77;;
4462;SDS011;2244;50.200;8.220;2023-06-10T04:53:29;15.23;;;7.50;;
4462;SDS011;2244;50.200;8.220;2023-06-10T04:55:57;14.50;;;8.13;;
4462;SDS011;2244;50.200;8.220;2023-06-10T04:58:24;13.53;;;7.93;;
4462;SDS011;2244;50.200;8.220;2023-06-10T05:00:52;12.70;;;7.30;;
4462;SDS011;2244;50.200;8.220;2023-06-10T05:03:19;13.13;;;7.50;;
4462;SDS011;2244;50.200;8.220;2023-06-10T05:05:47;15.83;;;8.30;;
4462;SDS011;2244;50.200;8.220;2023-06-10T05:08:14;13.00;;;7.90;;
4462;SDS011;2244;50.200;8.220;2023-06-10T05:10:42;13.00;;;7.57;;
4462;SDS011;2244;50.200;8.220;2023-06-10T05:13:09;14.87;;;7.93;;
4462;SDS011;2244;50.200;8.220;2023-06-10T05:15:37;14.70;;;7.90;;
4462;SDS011;2244;50.200;8.220;2023-06-10T05:18:04;14.23;;;8.27;;
4462;SDS011;2244;50.200;8.220;2023-06-10T05:20:32;16.10;;;8.73;;
4462;SDS011;2244;50.200;8.220;2023-06-10T05:22:59;14.90;;;8.13;;
4462;SDS011;2244;50.200;8.220;2023-06-10T05:25:28;16.40;;;8.90;;
4462;SDS011;2244;50.200;8.220;2023-06-10T05:27:56;15.30;;;9.20;;
4462;SDS011;2244;50.200;8.220;2023-06-10T05:30:23;16.00;;;9.30;;
4462;SDS011;2244;50.200;8.220;2023-06-10T05:32:52;15.07;;;9.03;;
4462;SDS011;2244;50.200;8.220;2023-06-10T05:35:19;15.53;;;8.80;;
4462;SDS011;2244;50.200;8.220;2023-06-10T05:37:47;15.10;;;8.93;;
4462;SDS011;2244;50.200;8.220;2023-06-10T05:40:15;15.30;;;8.87;;
4462;SDS011;2244;50.200;8.220;2023-06-10T05:42:42;15.80;;;9.47;;
4462;SDS011;2244;50.200;8.220;2023-06-10T05:45:10;16.40;;;9.30;;
4462;SDS011;2244;50.200;8.220;2023-06-10T05:47:37;17.93;;;9.47;;
4462;SDS011;2244;50.200;8.220;2023-06-10T05:50:05;15.13;;;8.90;;
4462;SDS011;2244;50.200;8.220;2023-06-10T05:52:37;17.37;;;8.60;;
4462;SDS011;2244;50.200;8.220;2023-06-10T05:55:06;14.47;;;7.67;;
4462;SDS011;2244;50.200;8.220;2023-06-10T05:57:34;16.40;;;8.83;;
4462;SDS011;2244;50.200;8.220;2023-06-10T06:00:02;15.20;;;9.20;;
4462;SDS011;2244;50.200;8.220;2023-06-10T06:02:30;15.20;;;8.30;;
4462;SDS011;2244;50.200;8.220;2023-06-10T06:04:58;15.03;;;8.27;;
4462;SDS011;2244;50.200;8.220;2023-06-10T06:07:25;15.90;;;8.33;;
4462;SDS011;2244;50.200;8.220;2023-06-10T06:09:52;13.83;;;8.30;;
4462;SDS011;2244;50.200;8.220;2023-06-10T06:12:20;14.93;;;8.63;;
4462;SDS011;2244;50.200;8.220;2023-06-10T06:14:47;14.10;;;7.97;;
4462;SDS011;2244;50.200;8.220;2023-06-10T06:17:15;14.47;;;7.83;;
4462;SDS011;2244;50.200;8.220;2023-06-10T06:19:43;13.30;;;7.33;;
4462;SDS011;2244;50.200;8.220;2023-06-10T06:22:11;15.50;;;8.00;;
4462;SDS011;2244;50.200;8.220;2023-06-10T06:24:39;13.50;;;7.23;;
4462;SDS011;2244;50.200;8.220;2023-06-10T06:27:06;15.30;;;8.33;;
4462;SDS011;2244;50.200;8.220;2023-06-10T06:29:34;14.20;;;7.50;;
4462;SDS011;2244;50.200;8.220;2023-06-10T06:32:02;16.97;;;7.43;;
4462;SDS011;2244;50.200;8.220;2023-06-10T06:34:29;15.77;;;7.70;;
4462;SDS011;2244;50.200;8.220;2023-06-10T06:36:56;15.53;;;8.27;;
4462;SDS011;2244;50.200;8.220;2023-06-10T06:39:24;13.77;;;7.47;;
4462;SDS011;2244;50.200;8.220;2023-06-10T06:41:53;13.73;;;7.10;;
4462;SDS011;2244;50.200;8.220;2023-06-10T06:44:20;14.53;;;7.43;;
4462;SDS011;2244;50.200;8.220;2023-06-10T06:46:47;16.23;;;7.60;;
4462;SDS011;2244;50.200;8.220;2023-06-10T06:49:15;13.10;;;7.13;;
4462;SDS011;2244;50.200;8.220;2023-06-10T06:51:42;12.90;;;6.47;;
4462;SDS011;2244;50.200;8.220;2023-06-10T06:54:10;14.10;;;7.10;;
4462;SDS011;2244;50.200;8.220;2023-06-10T06:56:38;21.43;;;7.40;;
4462;SDS011;2244;50.200;8.220;2023-06-10T06:59:05;14.60;;;7.67;;
4462;SDS011;2244;50.200;8.220;2023-06-10T07:01:33;12.80;;;6.57;;
4462;SDS011;2244;50.200;8.220;2023-06-10T07:04:01;14.07;;;7.40;;
4462;SDS011;2244;50.200;8.220;2023-06-10T07:06:29;13.10;;;6.67;;
4462;SDS011;2244;50.200;8.220;2023-06-10T07:08:56;13.57;;;6.80;;
4462;SDS011;2244;50.200;8.220;2023-06-10T07:11:23;14.50;;;6.80;;
4462;SDS011;2244;50.200;8.220;2023-06-10T07:13:51;17.43;;;7.30;;
4462;SDS011;2244;50.200;8.220;2023-06-10T07:16:19;13.80;;;7.00;;
4462;SDS011;2244;50.200;8.220;2023-06-10T07:18:47;12.80;;;7.20;;
4462;SDS011;2244;50.200;8.220;2023-06-10T07:21:15;13.20;;;6.43;;
4462;SDS011;2244;50.200;8.220;2023-06-10T07:23:43;12.20;;;6.67;;
4462;SDS011;2244;50.200;8.220;2023-06-10T07:26:11;15.47;;;6.97;;
4462;SDS011;2244;50.200;8.220;2023-06-10T07:28:40;12.50;;;7.20;;
4462;SDS011;2244;50.200;8.220;2023-06-10T07:31:08;12.90;;;6.70;;
4462;SDS011;2244;50.200;8.220;2023-06-10T07:33:36;14.70;;;7.70;;
4462;SDS011;2244;50.200;8.220;2023-06-10T07:36:08;13.33;;;6.30;;
4462;SDS011;2244;50.200;8.220;2023-06-10T07:38:35;14.03;;;6.87;;
4462;SDS011;2244;50.200;8.220;2023-06-10T07:41:03;12.53;;;6.80;;
4462;SDS011;2244;50.200;8.220;2023-06-10T07:43:31;14.33;;;6.73;;
4462;SDS011;2244;50.200;8.220;2023-06-10T07:45:58;14.40;;;7.00;;
4462;SDS011;2244;50.200;8.220;2023-06-10T07:48:26;15.10;;;6.40;;
4462;SDS011;2244;50.200;8.220;2023-06-10T07:50:53;15.30;;;7.43;;
4462;SDS011;2244;50.200;8.220;2023-06-10T07:53:21;14.10;;;7.23;;
4462;SDS011;2244;50.200;8.220;2023-06-10T07:55:48;15.77;;;7.73;;
4462;SDS011;2244;50.200;8.220;2023-06-10T07:58:16;16.50;;;7.20;;
4462;SDS011;2244;50.200;8.220;2023-06-10T08:00:43;16.10;;;7.37;;
4462;SDS011;2244;50.200;8.220;2023-06-10T08:03:11;14.47;;;7.70;;
4462;SDS011;2244;50.200;8.220;2023-06-10T08:05:39;14.73;;;7.50;;
4462;SDS011;2244;50.200;8.220;2023-06-10T08:08:07;14.90;;;7.27;;
4462;SDS011;2244;50.200;8.220;2023-06-10T08:10:34;15.33;;;7.00;;
4462;SDS011;2244;50.200;8.220;2023-06-10T08:13:02;15.80;;;8.60;;
4462;SDS011;2244;50.200;8.220;2023-06-10T08:15:29;19.83;;;8.70;;
4462;SDS011;2244;50.200;8.220;2023-06-10T08:17:57;12.93;;;7.20;;
4462;SDS011;2244;50.200;8.220;2023-06-10T08:20:24;14.10;;;7.67;;
4462;SDS011;2244;50.200;8.220;2023-06-10T08:22:52;14.83;;;7.40;;
4462;SDS011;2244;50.200;8.220;2023-06-10T08:25:19;13.17;;;7.00;;
4462;SDS011;2244;50.200;8.220;2023-06-10T08:27:48;13.53;;;7.90;;
4462;SDS011;2244;50.200;8.220;2023-06-10T08:30:17;14.53;;;7.60;;
4462;SDS011;2244;50.200;8.220;2023-06-10T08:32:44;13.53;;;6.70;;
4462;SDS011;2244;50.200;8.220;2023-06-10T08:35:12;12.90;;;7.40;;
4462;SDS011;2244;50.200;8.220;2023-06-10T08:37:40;12.20;;;7.00;;
4462;SDS011;2244;50.200;8.220;2023-06-10T08:40:07;16.40;;;7.40;;
4462;SDS011;2244;50.200;8.220;2023-06-10T08:45:21;12.60;;;7.13;;
4462;SDS011;2244;50.200;8.220;2023-06-10T08:47:50;15.50;;;7.07;;
4462;SDS011;2244;50.200;8.220;2023-06-10T08:50:18;14.30;;;6.50;;
4462;SDS011;2244;50.200;8.220;2023-06-10T08:52:46;14.37;;;7.17;;
4462;SDS011;2244;50.200;8.220;2023-06-10T08:55:18;12.90;;;6.93;;
4462;SDS011;2244;50.200;8.220;2023-06-10T08:57:44;14.13;;;7.43;;
4462;SDS011;2244;50.200;8.220;2023-06-10T09:00:12;15.70;;;7.80;;
4462;SDS011;2244;50.200;8.220;2023-06-10T09:02:40;14.37;;;7.20;;
4462;SDS011;2244;50.200;8.220;2023-06-10T09:05:07;14.93;;;7.10;;
4462;SDS011;2244;50.200;8.220;2023-06-10T09:07:35;13.77;;;6.50;;
4462;SDS011;2244;50.200;8.220;2023-06-10T09:10:03;14.33;;;6.77;;
4462;SDS011;2244;50.200;8.220;2023-06-10T09:12:33;13.07;;;6.70;;
4462;SDS011;2244;50.200;8.220;2023-06-10T09:15:01;12.40;;;6.37;;
4462;SDS011;2244;50.200;8.220;2023-06-10T09:17:29;12.30;;;6.60;;
4462;SDS011;2244;50.200;8.220;2023-06-10T09:19:59;14.07;;;6.23;;
4462;SDS011;2244;50.200;8.220;2023-06-10T09:22:26;12.60;;;6.40;;
4462;SDS011;2244;50.200;8.220;2023-06-10T09:25:05;13.53;;;6.10;;
4462;SDS011;2244;50.200;8.220;2023-06-10T09:27:33;14.20;;;6.80;;
4462;SDS011;2244;50.200;8.220;2023-06-10T09:30:02;12.23;;;6.20;;
4462;SDS011;2244;50.200;8.220;2023-06-10T09:32:30;15.07;;;6.03;;
4462;SDS011;2244;50.200;8.220;2023-06-10T09:34:57;12.50;;;5.80;;
4462;SDS011;2244;50.200;8.220;2023-06-10T09:37:25;13.43;;;5.47;;
4462;SDS011;2244;50.200;8.220;2023-06-10T09:40:05;15.37;;;5.50;;
4462;SDS011;2244;50.200;8.220;2023-06-10T09:42:39;11.20;;;5.70;;
4462;SDS011;2244;50.200;8.220;2023-06-10T09:45:03;13.50;;;6.30;;
4462;SDS011;2244;50.200;8.220;2023-06-10T09:47:32;12.30;;;5.57;;
4462;SDS011;2244;50.200;8.220;2023-06-10T09:49:59;13.30;;;5.90;;
4462;SDS011;2244;50.200;8.220;2023-06-10T09:52:28;14.47;;;5.63;;
4462;SDS011;2244;50.200;8.220;2023-06-10T09:55:00;11.93;;;5.23;;
4462;SDS011;2244;50.200;8.220;2023-06-10T09:57:30;13.23;;;4.93;;
4462;SDS011;2244;50.200;8.220;2023-06-10T10:00:03;12.23;;;6.30;;
4462;SDS011;2244;50.200;8.220;2023-06-10T10:02:29;12.10;;;6.23;;
4462;SDS011;2244;50.200;8.220;2023-06-10T10:05:06;12.63;;;5.63;;
4462;SDS011;2244;50.200;8.220;2023-06-10T10:07:26;14.53;;;5.37;;
4462;SDS011;2244;50.200;8.220;2023-06-10T10:09:53;14.07;;;4.70;;
4462;SDS011;2244;50.200;8.220;2023-06-10T10:12:21;10.73;;;5.07;;
4462;SDS011;2244;50.200;8.220;2023-06-10T10:14:50;11.53;;;4.83;;
4462;SDS011;2244;50.200;8.220;2023-06-10T10:17:17;10.43;;;4.70;;
4462;SDS011;2244;50.200;8.220;2023-06-10T10:19:48;15.10;;;5.30;;
4462;SDS011;2244;50.200;8.220;2023-06-10T10:22:19;12.20;;;5.10;;
4462;SDS011;2244;50.200;8.220;2023-06-10T10:24:51;13.60;;;4.60;;
4462;SDS011;2244;50.200;8.220;2023-06-10T10:27:35;13.93;;;5.10;;
4462;SDS011;2244;50.200;8.220;2023-06-10T10:29:57;11.20;;;4.73;;
4462;SDS011;2244;50.200;8.220;2023-06-10T10:32:28;12.90;;;4.67;;
4462;SDS011;2244;50.200;8.220;2023-06-10T10:37:31;11.27;;;4.77;;
4462;SDS011;2244;50.200;8.220;2023-06-10T10:39:59;10.40;;;4.80;;
4462;SDS011;2244;50.200;8.220;2023-06-10T10:42:27;11.30;;;4.93;;
4462;SDS011;2244;50.200;8.220;2023-06-10T10:44:55;11.23;;;4.50;;
4462;SDS011;2244;50.200;8.220;2023-06-10T10:47:23;12.13;;;4.60;;
4462;SDS011;2244;50.200;8.220;2023-06-10T10:49:52;11.43;;;4.63;;
4462;SDS011;2244;50.200;8.220;2023-06-10T10:52:23;10.47;;;4.80;;
4462;SDS011;2244;50.200;8.220;2023-06-10T10:54:52;14.50;;;4.53;;
4462;SDS011;2244;50.200;8.220;2023-06-10T10:57:20;10.87;;;4.50;;
4462;SDS011;2244;50.200;8.220;2023-06-10T11:05:00;10.17;;;4.97;;
4462;SDS011;2244;50.200;8.220;2023-06-10T11:07:31;10.37;;;4.10;;
4462;SDS011;2244;50.200;8.220;2023-06-10T11:10:06;10.00;;;4.77;;
4462;SDS011;2244;50.200;8.220;2023-06-10T11:15:19;17.83;;;5.23;;
4462;SDS011;2244;50.200;8.220;2023-06-10T11:23:24;12.17;;;4.80;;
4462;SDS011;2244;50.200;8.220;2023-06-10T11:25:40;11.07;;;4.40;;
4462;SDS011;2244;50.200;8.220;2023-06-10T11:28:17;11.37;;;5.00;;
4462;SDS011;2244;50.200;8.220;2023-06-10T11:30:46;11.43;;;4.83;;
4462;SDS011;2244;50.200;8.220;2023-06-10T11:33:18;14.47;;;5.43;;
4462;SDS011;2244;50.200;8.220;2023-06-10T11:35:43;10.93;;;4.63;;
4462;SDS011;2244;50.200;8.220;2023-06-10T11:38:10;13.03;;;4.87;;
4462;SDS011;2244;50.200;8.220;2023-06-10T11:40:39;14.03;;;5.40;;
4462;SDS011;2244;50.200;8.220;2023-06-10T11:43:07;13.40;;;5.60;;
4462;SDS011;2244;50.200;8.220;2023-06-10T11:45:34;14.77;;;5.33;;
4462;SDS011;2244;50.200;8.220;2023-06-10T11:48:02;12.10;;;5.30;;
4462;SDS011;2244;50.200;8.220;2023-06-10T11:50:32;13.80;;;5.00;;
4462;SDS011;2244;50.200;8.220;2023-06-10T11:53:00;14.80;;;4.63;;
4462;SDS011;2244;50.200;8.220;2023-06-10T11:55:40;10.37;;;4.20;;
4462;SDS011;2244;50.200;8.220;2023-06-10T11:58:20;10.70;;;4.63;;
4462;SDS011;2244;50.200;8.220;2023-06-10T12:00:46;10.67;;;4.17;;
4462;SDS011;2244;50.200;8.220;2023-06-10T12:03:15;12.13;;;5.00;;
4462;SDS011;2244;50.200;8.220;2023-06-10T12:05:58;10.60;;;4.57;;
4462;SDS011;2244;50.200;8.220;2023-06-10T12:08:26;9.50;;;3.70;;
4462;SDS011;2244;50.200;8.220;2023-06-10T12:10:56;11.90;;;4.10;;
4462;SDS011;2244;50.200;8.220;2023-06-10T12:13:26;10.30;;;4.30;;
4462;SDS011;2244;50.200;8.220;2023-06-10T12:15:54;10.37;;;4.23;;
4462;SDS011;2244;50.200;8.220;2023-06-10T12:18:26;9.30;;;4.20;;
4462;SDS011;2244;50.200;8.220;2023-06-10T12:20:50;12.00;;;4.40;;
4462;SDS011;2244;50.200;8.220;2023-06-10T12:23:18;10.30;;;4.20;;
4462;SDS011;2244;50.200;8.220;2023-06-10T12:25:53;10.00;;;4.10;;
4462;SDS011;2244;50.200;8.220;2023-06-10T12:28:21;11.17;;;4.47;;
4462;SDS011;2244;50.200;8.220;2023-06-10T12:30:49;8.80;;;4.03;;
4462;SDS011;2244;50.200;8.220;2023-06-10T12:33:17;9.90;;;3.90;;
4462;SDS011;2244;50.200;8.220;2023-06-10T12:35:48;10.30;;;4.37;;
4462;SDS011;2244;50.200;8.220;2023-06-10T12:38:23;10.43;;;4.50;;
4462;SDS011;2244;50.200;8.220;2023-06-10T12:41:01;10.10;;;3.90;;
4462;SDS011;2244;50.200;8.220;2023-06-10T12:43:30;10.57;;;4.50;;
4462;SDS011;2244;50.200;8.220;2023-06-10T12:46:08;12.50;;;4.33;;
4462;SDS011;2244;50.200;8.220;2023-06-10T12:48:28;11.47;;;4.43;;
4462;SDS011;2244;50.200;8.220;2023-06-10T12:50:57;12.60;;;4.60;;
4462;SDS011;2244;50.200;8.220;2023-06-10T12:53:25;10.80;;;4.67;;
4462;SDS011;2244;50.200;8.220;2023-06-10T12:55:55;8.43;;;3.53;;
4462;SDS011;2244;50.200;8.220;2023-06-10T12:58:22;10.93;;;4.60;;
4462;SDS011;2244;50.200;8.220;2023-06-10T13:00:50;11.97;;;4.80;;
4462;SDS011;2244;50.200;8.220;2023-06-10T13:03:19;11.33;;;4.10;;
4462;SDS011;2244;50.200;8.220;2023-06-10T13:05:48;10.23;;;4.20;;
4462;SDS011;2244;50.200;8.220;2023-06-10T13:08:15;11.17;;;4.40;;
4462;SDS011;2244;50.200;8.220;2023-06-10T13:10:43;14.17;;;4.73;;
4462;SDS011;2244;50.200;8.220;2023-06-10T13:13:10;11.20;;;4.57;;
4462;SDS011;2244;50.200;8.220;2023-06-10T13:15:38;10.33;;;4.47;;
4462;SDS011;2244;50.200;8.220;2023-06-10T13:18:07;11.20;;;4.93;;
4462;SDS011;2244;50.200;8.220;2023-06-10T13:20:34;9.73;;;4.50;;
4462;SDS011;2244;50.200;8.220;2023-06-10T13:23:02;13.20;;;4.97;;
4462;SDS011;2244;50.200;8.220;2023-06-10T13:25:30;10.40;;;4.60;;
4462;SDS011;2244;50.200;8.220;2023-06-10T13:27:57;12.43;;;4.10;;
4462;SDS011;2244;50.200;8.220;2023-06-10T13:30:24;13.03;;;4.40;;
4462;SDS011;2244;50.200;8.220;2023-06-10T13:32:53;15.77;;;5.57;;
4462;SDS011;2244;50.200;8.220;2023-06-10T13:35:20;12.47;;;4.40;;
4462;SDS011;2244;50.200;8.220;2023-06-10T13:37:47;11.23;;;5.23;;
4462;SDS011;2244;50.200;8.220;2023-06-10T13:40:15;11.33;;;4.97;;
4462;SDS011;2244;50.200;8.220;2023-06-10T13:42:42;11.03;;;5.57;;
4462;SDS011;2244;50.200;8.220;2023-06-10T13:45:10;11.10;;;4.90;;
4462;SDS011;2244;50.200;8.220;2023-06-10T13:47:38;13.30;;;5.10;;
4462;SDS011;2244;50.200;8.220;2023-06-10T13:50:07;11.47;;;5.40;;
4462;SDS011;2244;50.200;8.220;2023-06-10T13:52:34;10.90;;;4.83;;
4462;SDS011;2244;50.200;8.220;2023-06-10T13:55:02;15.50;;;5.20;;
4462;SDS011;2244;50.200;8.220;2023-06-10T13:57:29;9.77;;;4.87;;
4462;SDS011;2244;50.200;8.220;2023-06-10T13:59:57;10.03;;;4.97;;
4462;SDS011;2244;50.200;8.220;2023-06-10T14:02:24;11.20;;;4.83;;
4462;SDS011;2244;50.200;8.220;2023-06-10T14:04:52;11.67;;;5.00;;
4462;SDS011;2244;50.200;8.220;2023-06-10T14:07:19;12.27;;;4.73;;
4462;SDS011;2244;50.200;8.220;2023-06-10T14:09:47;18.50;;;5.40;;
4462;SDS011;2244;50.200;8.220;2023-06-10T14:12:15;13.70;;;6.20;;
4462;SDS011;2244;50.200;8.220;2023-06-10T14:14:42;17.97;;;5.20;;
4462;SDS011;2244;50.200;8.220;2023-06-10T14:17:10;16.50;;;6.13;;
4462;SDS011;2244;50.200;8.220;2023-06-10T14:19:37;11.23;;;5.40;;
4462;SDS011;2244;50.200;8.220;2023-06-10T14:22:06;10.47;;;5.00;;
4462;SDS011;2244;50.200;8.220;2023-06-10T14:24:35;9.73;;;4.87;;
4462;SDS011;2244;50.200;8.220;2023-06-10T14:27:04;11.40;;;5.50;;
4462;SDS011;2244;50.200;8.220;2023-06-10T14:29:32;11.20;;;5.70;;
4462;SDS011;2244;50.200;8.220;2023-06-10T14:32:00;10.27;;;5.03;;
4462;SDS011;2244;50.200;8.220;2023-06-10T14:34:27;10.20;;;5.13;;
4462;SDS011;2244;50.200;8.220;2023-06-10T14:36:56;11.30;;;5.07;;
4462;SDS011;2244;50.200;8.220;2023-06-10T14:39:24;12.90;;;5.90;;
4462;SDS011;2244;50.200;8.220;2023-06-10T14:41:51;12.63;;;5.50;;
4462;SDS011;2244;50.200;8.220;2023-06-10T14:44:21;15.20;;;5.40;;
4462;SDS011;2244;50.200;8.220;2023-06-10T14:46:49;13.37;;;5.80;;
4462;SDS011;2244;50.200;8.220;2023-06-10T14:49:17;12.77;;;6.03;;
4462;SDS011;2244;50.200;8.220;2023-06-10T14:51:45;11.37;;;5.47;;
4462;SDS011;2244;50.200;8.220;2023-06-10T14:54:12;12.67;;;4.80;;
4462;SDS011;2244;50.200;8.220;2023-06-10T14:56:40;11.73;;;5.20;;
4462;SDS011;2244;50.200;8.220;2023-06-10T14:59:07;16.33;;;5.70;;
4462;SDS011;2244;50.200;8.220;2023-06-10T15:01:35;10.20;;;4.63;;
4462;SDS011;2244;50.200;8.220;2023-06-10T15:04:02;11.77;;;5.03;;
4462;SDS011;2244;50.200;8.220;2023-06-10T15:06:30;11.23;;;5.30;;
4462;SDS011;2244;50.200;8.220;2023-06-10T15:08:57;11.00;;;5.03;;
4462;SDS011;2244;50.200;8.220;2023-06-10T15:11:24;10.00;;;5.13;;
4462;SDS011;2244;50.200;8.220;2023-06-10T15:13:52;12.63;;;5.50;;
4462;SDS011;2244;50.200;8.220;2023-06-10T15:16:20;11.73;;;5.43;;
4462;SDS011;2244;50.200;8.220;2023-06-10T15:18:47;10.30;;;4.80;;
4462;SDS011;2244;50.200;8.220;2023-06-10T15:21:15;11.50;;;5.43;;
4462;SDS011;2244;50.200;8.220;2023-06-10T15:23:42;11.30;;;5.60;;
4462;SDS011;2244;50.200;8.220;2023-06-10T15:26:10;11.17;;;5.47;;
4462;SDS011;2244;50.200;8.220;2023-06-10T15:28:38;11.07;;;5.00;;